createdAt,value
2023-04-12T05:47:59.205Z,18.73
2023-04-12T07:57:09.083Z,9.02
2023-04-12T07:58:31.538Z,8.93
2023-04-12T08:00:02.490Z,8.00
2023-04-12T08:01:48.827Z,13.45
2023-04-12T08:03:43.347Z,11.30
2023-04-12T09:28:29.650Z,4.38
2023-04-12T09:29:53.353Z,2.80
2023-04-12T09:31:59.636Z,5.18
2023-04-12T09:33:24.348Z,5.25
2023-04-12T09:35:13.258Z,5.82
2023-04-12T09:36:40.421Z,6.10
2023-04-12T09:38:23.224Z,4.53
2023-04-12T09:40:02.428Z,5.50
2023-04-12T09:41:28.912Z,5.40
2023-04-12T10:04:23.625Z,5.65
2023-04-12T10:05:46.188Z,5.05
2023-04-12T10:07:19.858Z,5.25
2023-04-12T10:08:44.167Z,4.65
2023-04-12T10:10:08.943Z,6.32
2023-04-12T10:11:31.663Z,4.15
2023-04-12T10:12:54.114Z,5.45
2023-04-12T10:14:20.036Z,7.03
2023-04-12T10:15:43.622Z,5.20
2023-04-12T10:17:07.730Z,6.68
2023-04-12T10:21:01.141Z,4.57
2023-04-12T10:22:27.103Z,5.00
2023-04-12T10:25:20.750Z,4.32
2023-04-12T10:26:44.573Z,5.45
2023-04-12T10:36:40.078Z,6.30
2023-04-12T10:38:05.081Z,5.50
2023-04-12T10:39:41.849Z,3.95
2023-04-12T10:41:18.561Z,8.20
2023-04-12T10:43:32.358Z,5.78
2023-04-12T10:45:01.009Z,5.07
2023-04-12T10:46:57.663Z,5.03
2023-04-12T10:48:34.130Z,4.15
2023-04-12T10:50:27.076Z,3.17
2023-04-12T10:52:16.381Z,6.10
2023-04-12T10:53:48.048Z,5.80
2023-04-12T10:55:41.404Z,5.05
2023-04-12T10:57:54.389Z,3.55
2023-04-12T11:00:10.681Z,3.13
2023-04-12T11:12:03.913Z,5.90
2023-04-12T11:20:30.694Z,3.25
2023-04-12T12:03:08.357Z,5.68
2023-04-12T12:05:05.047Z,6.50
2023-04-12T12:06:36.357Z,4.88
2023-04-12T12:08:10.926Z,5.55
2023-04-12T12:09:46.792Z,7.97
2023-04-12T12:11:15.614Z,3.13
2023-04-12T12:15:33.285Z,12.25
2023-04-12T12:17:14.737Z,5.82
2023-04-12T12:18:57.993Z,4.82
2023-04-12T12:20:33.729Z,7.15
2023-04-12T12:22:55.259Z,5.20
2023-04-12T13:15:34.902Z,4.60
2023-04-12T13:17:36.992Z,5.07
2023-04-12T13:51:00.306Z,5.38
2023-04-12T13:55:50.397Z,4.65
2023-04-12T13:57:42.681Z,6.05
2023-04-12T13:59:05.106Z,4.68
2023-04-12T14:01:53.375Z,5.13
2023-04-12T14:03:41.583Z,5.18
2023-04-12T14:05:29.848Z,6.05
2023-04-12T14:06:55.437Z,3.30
2023-04-12T14:21:00.451Z,4.75
2023-04-12T14:23:08.756Z,5.28
2023-04-12T14:25:08.385Z,5.97
2023-04-12T14:30:43.760Z,3.63
2023-04-12T14:33:12.397Z,3.77
2023-04-12T14:38:03.365Z,6.13
2023-04-12T14:40:32.819Z,5.30
2023-04-12T14:42:43.926Z,6.55
2023-04-12T14:46:38.887Z,3.85
2023-04-12T14:50:41.196Z,4.50
2023-04-12T14:52:09.020Z,3.47
2023-04-12T14:53:52.346Z,5.05
2023-04-12T14:56:18.355Z,5.82
2023-04-12T15:00:40.171Z,4.80
2023-04-12T15:03:10.462Z,5.50
2023-04-12T15:21:39.417Z,3.80
2023-04-12T15:23:11.617Z,6.20
2023-04-12T15:24:34.943Z,4.38
2023-04-12T15:26:09.340Z,6.43
2023-04-12T15:28:32.570Z,4.65
2023-04-12T15:30:10.215Z,4.60
2023-04-12T15:31:43.154Z,5.55
2023-04-12T15:33:08.557Z,5.80
2023-04-12T15:34:44.495Z,4.53
2023-04-12T15:36:19.218Z,4.72
2023-04-12T15:48:23.415Z,8.35
2023-04-12T15:49:49.137Z,4.65
2023-04-12T15:51:20.391Z,8.38
2023-04-12T15:52:44.374Z,10.67
2023-04-12T15:54:06.975Z,6.53
2023-04-12T15:55:44.947Z,9.07
2023-04-12T15:57:11.801Z,4.53
2023-04-12T16:01:47.488Z,5.25
2023-04-12T16:03:10.053Z,5.25
2023-04-12T16:04:45.769Z,5.72
2023-04-12T16:06:08.670Z,5.15
2023-04-12T16:07:32.132Z,3.53
2023-04-12T16:12:25.106Z,10.57
2023-04-12T16:13:51.862Z,7.30
2023-04-12T16:15:17.304Z,8.02
2023-04-12T16:16:58.551Z,6.13
2023-04-12T16:18:23.416Z,7.85
2023-04-12T16:19:50.869Z,7.85
2023-04-12T16:21:16.838Z,8.82
2023-04-12T16:22:44.354Z,8.07
2023-04-12T16:24:10.368Z,8.40
2023-04-12T16:25:36.628Z,5.30
2023-04-12T16:27:00.192Z,6.53
2023-04-12T16:28:22.754Z,5.72
2023-04-12T16:29:45.835Z,8.45
2023-04-12T16:31:22.235Z,11.43
2023-04-12T16:32:47.457Z,8.63
2023-04-12T16:36:01.858Z,8.93
2023-04-12T16:37:23.425Z,10.35
2023-04-12T16:38:49.790Z,11.32
2023-04-12T16:40:20.924Z,11.40
2023-04-12T16:41:43.967Z,7.63
2023-04-12T16:43:07.021Z,6.50
2023-04-12T16:44:29.630Z,7.00
2023-04-12T16:47:13.219Z,11.15
2023-04-12T16:48:41.317Z,8.90
2023-04-12T16:50:08.577Z,4.60
2023-04-12T16:51:41.413Z,7.80
2023-04-12T16:53:02.743Z,5.35
2023-04-12T16:54:24.951Z,6.63
2023-04-12T16:55:49.082Z,7.60
2023-04-12T16:57:22.412Z,6.53
2023-04-12T16:58:49.120Z,7.75
2023-04-12T17:00:21.891Z,9.25
2023-04-12T17:01:54.535Z,9.15
2023-04-12T17:03:21.388Z,7.53
2023-04-12T17:04:44.162Z,9.13
2023-04-12T17:06:07.267Z,6.10
2023-04-12T17:07:31.922Z,9.05
2023-04-12T17:08:54.491Z,9.48
2023-04-12T17:10:18.573Z,6.93
2023-04-12T17:11:40.715Z,10.27
2023-04-12T17:13:05.004Z,7.95
2023-04-12T17:14:30.178Z,6.93
2023-04-12T17:15:56.905Z,10.50
2023-04-12T17:17:22.103Z,11.32
2023-04-12T17:18:44.780Z,9.73
2023-04-12T17:20:16.672Z,11.20
2023-04-12T17:21:46.079Z,12.25
2023-04-12T17:23:18.148Z,8.88
2023-04-12T17:26:54.952Z,7.50
2023-04-12T17:28:43.204Z,9.10
2023-04-12T17:30:10.934Z,7.88
2023-04-12T17:31:54.259Z,10.10
2023-04-12T17:33:52.287Z,9.23
2023-04-12T17:38:23.221Z,11.27
2023-04-12T17:48:18.850Z,17.02
2023-04-12T17:49:44.416Z,9.75
2023-04-12T17:51:11.121Z,10.40
2023-04-12T17:52:33.525Z,9.57
2023-04-12T17:53:58.489Z,10.15
2023-04-12T17:55:23.755Z,12.60
2023-04-12T17:56:46.087Z,11.30
2023-04-12T17:58:08.614Z,10.43
2023-04-12T17:59:35.996Z,12.80
2023-04-12T18:01:00.135Z,13.10
2023-04-12T18:02:24.756Z,13.10
2023-04-12T18:04:03.238Z,13.43
2023-04-12T18:05:30.537Z,12.63
2023-04-12T18:06:56.588Z,14.05
2023-04-12T18:08:24.289Z,12.68
2023-04-12T18:09:53.537Z,17.30
2023-04-12T18:11:18.518Z,16.77
2023-04-12T18:12:51.523Z,17.48
2023-04-12T18:20:03.454Z,21.50
2023-04-12T18:21:28.880Z,15.07
2023-04-12T18:23:07.831Z,14.48
2023-04-12T18:24:30.599Z,18.90
2023-04-12T18:25:57.832Z,19.02
2023-04-12T18:27:20.337Z,17.70
2023-04-12T18:28:42.611Z,19.02
2023-04-12T18:30:05.687Z,19.02
2023-04-12T18:31:28.736Z,14.00
2023-04-12T18:32:53.578Z,15.70
2023-04-12T18:34:19.209Z,14.80
2023-04-12T18:35:41.653Z,19.63
2023-04-12T18:37:06.856Z,11.85
2023-04-12T18:38:32.663Z,14.23
2023-04-12T18:40:03.648Z,11.82
2023-04-12T18:41:27.802Z,18.20
2023-04-12T18:42:50.292Z,16.63
2023-04-12T18:44:13.493Z,15.35
2023-04-12T18:45:40.660Z,13.63
2023-04-12T18:47:06.026Z,13.20
2023-04-12T18:48:30.470Z,14.95
2023-04-12T18:49:53.581Z,14.07
2023-04-12T18:51:21.655Z,17.73
2023-04-12T18:52:55.369Z,13.75
2023-04-12T18:54:25.022Z,15.80
2023-04-12T18:55:58.111Z,19.65
2023-04-12T18:57:26.646Z,16.83
2023-04-12T18:59:02.328Z,15.32
2023-04-12T19:00:28.980Z,19.40
2023-04-12T19:02:02.978Z,20.25
2023-04-12T19:10:00.774Z,23.15
2023-04-12T19:11:28.032Z,17.10
2023-04-12T19:12:52.845Z,17.80
2023-04-12T19:14:14.892Z,17.33
2023-04-12T19:15:36.943Z,18.15
2023-04-12T19:16:59.566Z,19.90
2023-04-12T19:18:27.970Z,16.63
2023-04-12T19:19:50.556Z,18.20
2023-04-12T19:21:15.737Z,18.98
2023-04-12T19:22:37.854Z,16.55
2023-04-12T19:24:00.943Z,15.38
2023-04-12T19:25:25.873Z,16.45
2023-04-12T19:26:48.227Z,22.88
2023-04-12T19:28:12.158Z,15.32
2023-04-12T19:29:36.856Z,15.10
2023-04-12T19:31:01.853Z,21.20
2023-04-12T19:32:24.064Z,12.45
2023-04-12T19:33:47.900Z,17.60
2023-04-12T19:35:11.660Z,15.73
2023-04-12T19:36:37.019Z,16.52
2023-04-12T19:37:59.606Z,13.63
2023-04-12T19:39:23.016Z,12.05
2023-04-12T19:40:45.459Z,11.05
2023-04-12T19:42:29.139Z,11.70
2023-04-12T19:44:14.353Z,19.73
2023-04-12T19:45:39.653Z,18.60
2023-04-12T19:47:01.898Z,14.35
2023-04-12T19:48:27.140Z,16.77
2023-04-12T19:49:52.224Z,18.98
2023-04-12T19:51:15.463Z,15.88
2023-04-12T19:52:39.515Z,17.00
2023-04-12T19:54:03.103Z,15.10
2023-04-12T19:55:42.777Z,16.80
2023-04-12T19:57:10.985Z,16.63
2023-04-12T19:58:33.775Z,21.35
2023-04-12T19:59:58.000Z,23.95
2023-04-12T20:01:20.438Z,20.83
2023-04-12T20:02:48.169Z,18.30
2023-04-12T20:04:15.351Z,17.08
2023-04-12T20:06:12.125Z,21.45
2023-04-12T20:07:40.601Z,18.67
2023-04-12T20:09:19.178Z,16.92
2023-04-12T20:10:43.413Z,21.08
2023-04-12T20:12:09.447Z,16.95
2023-04-12T20:13:32.530Z,22.42
2023-04-12T20:14:55.465Z,22.52
2023-04-12T20:16:30.994Z,21.15
2023-04-12T20:17:56.915Z,20.40
2023-04-12T20:19:24.330Z,23.00
2023-04-12T20:20:49.779Z,18.35
2023-04-12T20:22:18.142Z,22.05
2023-04-12T20:23:45.942Z,18.65
2023-04-12T20:25:14.799Z,22.77
2023-04-12T20:26:41.661Z,19.08
2023-04-12T20:28:06.610Z,17.50
2023-04-12T20:29:32.056Z,19.65
2023-04-12T20:30:54.330Z,19.48
2023-04-12T20:32:22.286Z,19.73
2023-04-12T20:33:44.420Z,22.83
2023-04-12T20:35:08.062Z,17.23
2023-04-12T20:36:31.506Z,19.27
2023-04-12T20:37:57.823Z,18.40
2023-04-12T20:39:30.883Z,18.95
2023-04-12T20:40:56.868Z,20.77
2023-04-12T20:42:25.830Z,16.73
2023-04-12T20:43:49.430Z,20.15
2023-04-12T20:45:13.426Z,20.98
2023-04-12T20:46:41.143Z,22.95
2023-04-12T20:48:05.158Z,18.52
2023-04-12T20:49:31.432Z,23.95
2023-04-12T20:50:58.302Z,17.15
2023-04-12T20:52:28.450Z,24.33
2023-04-12T20:53:58.664Z,19.77
2023-04-12T20:55:34.121Z,20.77
2023-04-12T20:56:56.301Z,19.70
2023-04-12T20:58:20.668Z,29.10
2023-04-12T20:59:46.289Z,21.83
2023-04-12T21:01:15.206Z,21.38
2023-04-12T21:02:39.363Z,21.20
2023-04-12T21:04:06.385Z,24.35
2023-04-12T21:05:34.138Z,21.60
2023-04-12T21:07:03.000Z,20.27
2023-04-12T21:08:26.988Z,21.98
2023-04-12T21:09:54.380Z,21.50
2023-04-12T21:11:19.836Z,22.27
2023-04-12T21:12:42.860Z,21.75
2023-04-12T21:14:04.464Z,21.73
2023-04-12T21:15:35.743Z,21.42
2023-04-12T21:16:58.153Z,21.40
2023-04-12T21:18:21.085Z,24.50
2023-04-12T21:19:45.275Z,20.85
2023-04-12T21:21:08.470Z,24.25
2023-04-12T21:22:33.752Z,19.40
2023-04-12T21:23:56.354Z,23.23
2023-04-12T21:25:19.112Z,22.80
2023-04-12T21:26:43.771Z,21.73
2023-04-12T21:28:07.130Z,20.30
2023-04-12T21:29:31.927Z,25.92
2023-04-12T21:30:57.706Z,24.15
2023-04-12T21:32:19.267Z,22.13
2023-04-12T21:33:41.990Z,21.02
2023-04-12T21:35:13.622Z,23.00
2023-04-12T21:36:50.090Z,20.23
2023-04-12T21:38:15.760Z,21.85
2023-04-12T21:39:43.829Z,22.25
2023-04-12T21:41:11.622Z,24.75
2023-04-12T21:42:36.687Z,23.95
2023-04-12T21:43:59.337Z,18.30
2023-04-12T21:45:26.814Z,21.92
2023-04-12T21:46:51.958Z,26.13
2023-04-12T21:48:14.807Z,22.00
2023-04-12T21:49:38.011Z,25.67
2023-04-12T21:51:00.681Z,21.25
2023-04-12T21:52:27.294Z,23.80
2023-04-12T21:53:50.046Z,28.00
2023-04-12T21:55:14.629Z,22.77
2023-04-12T21:56:39.774Z,22.20
2023-04-12T21:58:07.132Z,26.77
2023-04-12T21:59:35.708Z,24.42
2023-04-12T22:00:58.644Z,22.30
2023-04-12T22:02:20.768Z,23.80
2023-04-12T22:03:44.432Z,22.38
2023-04-12T22:05:07.690Z,22.60
2023-04-12T22:06:33.802Z,26.75
2023-04-12T22:07:59.425Z,22.83
2023-04-12T22:10:07.799Z,24.77
2023-04-12T22:11:41.618Z,23.65
2023-04-12T22:13:10.211Z,21.40
2023-04-12T22:14:32.543Z,26.05
2023-04-12T22:15:55.126Z,24.30
2023-04-12T22:17:18.439Z,24.83
2023-04-12T22:18:41.422Z,27.25
2023-04-12T22:20:02.363Z,28.17
2023-04-12T22:21:26.717Z,27.73
2023-04-12T22:22:50.847Z,25.98
2023-04-12T22:24:13.642Z,25.13
2023-04-12T22:25:37.541Z,24.08
2023-04-12T22:27:01.840Z,27.55
2023-04-12T22:28:24.733Z,25.05
2023-04-12T22:29:52.342Z,27.15
2023-04-12T22:31:19.167Z,27.13
2023-04-12T22:32:51.100Z,28.15
2023-04-12T22:34:18.062Z,28.92
2023-04-12T22:35:40.608Z,26.92
2023-04-12T22:37:03.827Z,29.75
2023-04-12T22:38:29.827Z,25.60
2023-04-12T22:39:55.171Z,28.35
2023-04-12T22:41:16.743Z,30.00
2023-04-12T22:42:47.669Z,30.45
2023-04-12T22:44:12.608Z,28.88
2023-04-12T22:45:36.161Z,28.48
2023-04-12T22:47:00.511Z,25.75
2023-04-12T22:48:25.213Z,24.08
2023-04-12T22:49:50.840Z,25.35
2023-04-12T22:51:13.132Z,25.58
2023-04-12T22:52:38.576Z,27.55
2023-04-12T22:54:08.628Z,28.40
2023-04-12T22:55:33.350Z,23.55
2023-04-12T22:56:55.473Z,27.15
2023-04-12T22:58:21.990Z,27.30
2023-04-12T22:59:46.688Z,30.25
2023-04-12T23:04:38.274Z,27.83
2023-04-12T23:06:00.738Z,25.52
2023-04-12T23:07:22.204Z,25.45
2023-04-12T23:10:10.918Z,27.77
2023-04-12T23:11:33.748Z,26.83
2023-04-12T23:12:56.073Z,27.23
2023-04-12T23:14:18.855Z,24.85
2023-04-12T23:15:40.836Z,26.52
2023-04-12T23:18:25.920Z,27.43
2023-04-12T23:19:50.460Z,26.55
2023-04-12T23:21:11.994Z,26.55
2023-04-12T23:22:55.185Z,25.20
2023-04-12T23:24:19.649Z,28.98
2023-04-12T23:25:43.487Z,25.80
2023-04-12T23:27:05.709Z,28.08
2023-04-12T23:28:26.888Z,27.15
2023-04-12T23:29:50.297Z,26.70
2023-04-12T23:31:23.831Z,26.10
2023-04-12T23:33:02.848Z,27.42
2023-04-12T23:34:30.841Z,24.42
2023-04-12T23:35:53.573Z,23.00
2023-04-12T23:37:15.716Z,28.05
2023-04-12T23:38:44.494Z,25.60
2023-04-12T23:40:06.345Z,29.30
2023-04-12T23:42:53.439Z,27.75
2023-04-12T23:44:15.955Z,27.93
2023-04-12T23:45:37.454Z,27.77
2023-04-12T23:46:59.901Z,31.95
2023-04-12T23:48:22.900Z,27.38
2023-04-12T23:49:44.949Z,31.10
2023-04-12T23:51:09.616Z,29.63
2023-04-12T23:52:35.172Z,26.08
2023-04-12T23:53:57.561Z,29.02
2023-04-12T23:55:20.090Z,27.50
2023-04-12T23:56:43.707Z,32.15
2023-04-12T23:58:04.870Z,28.48
2023-04-12T23:59:27.767Z,29.35
